Time;durP1;ratioP1;P1;durP2;ratioP2;P2;SDS_P1;SDS_P2;PMS_P1;PMS_P2;Temp;Humidity;BMP_temperature;BMP_pressure;BME280_temperature;BME280_humidity;BME280_pressure;Samples;Min_cycle;Max_cycle;Signal;HPM_P1;HPM_P2
2023/08/27 00:09:15;;;;;;;;;;;15.90;99.90;;;;;;21000116;28;19999;-74
2023/08/27 00:19:16;;;;;;;;;;;15.70;99.90;;;;;;20999290;28;20335;-74
2023/08/27 00:29:19;;;;;;;;;;;15.80;99.90;;;;;;20995922;28;19917;-74
2023/08/27 00:39:20;;;;;;;;;;;15.90;99.90;;;;;;20979872;28;20286;-74
2023/08/27 00:49:20;;;;;;;;;;;16.00;99.90;;;;;;20997023;28;19924;-74
2023/08/27 00:59:22;;;;;;;;;;;16.00;99.90;;;;;;20977939;28;19943;-74
2023/08/27 01:09:23;;;;;;;;;;;15.90;99.90;;;;;;20977283;28;20097;-74
2023/08/27 01:19:24;;;;;;;;;;;15.90;99.90;;;;;;20976555;28;20019;-74
2023/08/27 01:29:37;;;;;;;;;;;16.00;99.90;;;;;;20975963;28;19924;-74
2023/08/27 01:39:38;;;;;;;;;;;16.10;99.90;;;;;;20974124;28;19924;-74
2023/08/27 01:49:38;;;;;;;;;;;16.00;99.90;;;;;;20976682;28;19920;-75
2023/08/27 01:59:39;;;;;;;;;;;16.00;99.90;;;;;;20973451;28;19917;-74
2023/08/27 02:09:39;;;;;;;;;;;16.00;99.90;;;;;;20965767;28;19912;-74
2023/08/27 02:19:40;;;;;;;;;;;16.00;99.90;;;;;;20952331;28;19921;-74
2023/08/27 02:29:41;;;;;;;;;;;15.90;99.90;;;;;;20955449;28;19974;-74
2023/08/27 02:39:41;;;;;;;;;;;15.90;99.90;;;;;;20971864;28;19962;-74
2023/08/27 02:49:42;;;;;;;;;;;16.00;99.90;;;;;;20982456;28;20007;-73
2023/08/27 02:59:43;;;;;;;;;;;15.80;99.90;;;;;;21005543;28;19916;-74
2023/08/27 03:09:44;;;;;;;;;;;15.70;99.90;;;;;;20986890;28;20002;-74
2023/08/27 03:19:45;;;;;;;;;;;15.60;99.90;;;;;;20990133;28;19917;-74
2023/08/27 03:29:45;;;;;;;;;;;15.60;99.90;;;;;;20976412;28;20329;-74
2023/08/27 03:39:46;;;;;;;;;;;15.60;99.90;;;;;;20970001;28;19983;-73
2023/08/27 03:49:46;;;;;;;;;;;15.60;99.90;;;;;;21006179;28;20306;-74
2023/08/27 03:59:47;;;;;;;;;;;15.60;99.90;;;;;;20967493;28;19962;-73
2023/08/27 04:09:49;;;;;;;;;;;15.60;99.90;;;;;;20967918;28;19958;-74
2023/08/27 04:19:51;;;;;;;;;;;15.60;99.90;;;;;;20988757;28;19917;-74
2023/08/27 04:29:52;;;;;;;;;;;15.50;99.90;;;;;;20987016;28;20291;-74
2023/08/27 04:39:53;;;;;;;;;;;15.50;99.90;;;;;;20913752;28;19917;-74
2023/08/27 04:49:54;;;;;;;;;;;15.50;99.90;;;;;;20941607;28;19959;-74
2023/08/27 04:59:56;;;;;;;;;;;15.60;99.90;;;;;;20958845;28;19917;-74
2023/08/27 05:09:57;;;;;;;;;;;15.60;99.90;;;;;;20965854;28;20345;-74
2023/08/27 05:19:58;;;;;;;;;;;15.50;99.90;;;;;;20947582;28;20394;-74
2023/08/27 05:29:59;;;;;;;;;;;15.60;99.90;;;;;;20917488;28;19947;-74
2023/08/27 05:39:59;;;;;;;;;;;15.80;99.90;;;;;;20955238;28;19931;-74
2023/08/27 05:50:00;;;;;;;;;;;15.90;99.90;;;;;;20934082;28;19921;-73
2023/08/27 06:00:02;;;;;;;;;;;16.00;99.90;;;;;;20935535;28;19931;-74
2023/08/27 06:10:13;;;;;;;;;;;16.30;99.90;;;;;;20943920;28;20437;-74
2023/08/27 06:20:14;;;;;;;;;;;16.50;99.90;;;;;;20926025;28;19982;-74
2023/08/27 06:30:14;;;;;;;;;;;16.40;99.90;;;;;;20919777;28;19943;-74
2023/08/27 06:40:16;;;;;;;;;;;16.40;99.90;;;;;;20945884;28;19970;-74
2023/08/27 06:50:17;;;;;;;;;;;16.70;99.90;;;;;;20941453;28;20050;-74
2023/08/27 07:00:18;;;;;;;;;;;16.90;99.90;;;;;;20912988;28;19921;-74
2023/08/27 07:10:21;;;;;;;;;;;17.00;99.90;;;;;;20944108;28;19912;-74
2023/08/27 07:20:22;;;;;;;;;;;17.10;99.90;;;;;;20971928;28;20306;-74
2023/08/27 07:30:23;;;;;;;;;;;17.20;99.90;;;;;;20970787;28;19975;-74
2023/08/27 07:40:24;;;;;;;;;;;16.90;99.90;;;;;;20928714;28;19970;-74
2023/08/27 07:50:31;;;;;;;;;;;16.80;99.90;;;;;;20983395;28;19999;-74
2023/08/27 08:00:32;;;;;;;;;;;16.80;99.90;;;;;;20952985;28;20299;-73
2023/08/27 08:10:33;;;;;;;;;;;17.10;99.90;;;;;;20982178;28;19939;-74
2023/08/27 08:20:33;;;;;;;;;;;17.20;99.90;;;;;;20975811;28;20275;-74
2023/08/27 08:30:34;;;;;;;;;;;17.50;99.90;;;;;;20997656;28;19913;-74
2023/08/27 08:40:39;;;;;;;;;;;17.50;99.90;;;;;;20997651;28;19916;-74
2023/08/27 08:50:40;;;;;;;;;;;18.10;99.90;;;;;;20995024;28;19935;-74
2023/08/27 09:00:41;;;;;;;;;;;18.30;99.90;;;;;;20991961;28;19921;-74
2023/08/27 09:10:42;;;;;;;;;;;18.30;99.90;;;;;;20989245;28;19927;-74
2023/08/27 09:20:43;;;;;;;;;;;18.10;99.90;;;;;;20983875;28;19917;-74
2023/08/27 09:30:43;;;;;;;;;;;17.90;99.90;;;;;;20993867;28;19919;-74
2023/08/27 09:40:44;;;;;;;;;;;18.10;99.90;;;;;;20994149;28;20002;-73
2023/08/27 09:50:45;;;;;;;;;;;17.80;99.90;;;;;;20983609;28;19952;-74
2023/08/27 10:00:45;;;;;;;;;;;17.90;99.90;;;;;;20991825;28;19916;-74
2023/08/27 10:10:46;;;;;;;;;;;18.10;99.90;;;;;;20974998;28;20351;-75
2023/08/27 10:20:48;;;;;;;;;;;18.10;99.90;;;;;;20965138;28;20398;-74
2023/08/27 10:30:50;;;;;;;;;;;18.60;99.90;;;;;;20976340;28;19919;-72
2023/08/27 10:40:51;;;;;;;;;;;18.60;99.90;;;;;;20983743;28;19952;-73
2023/08/27 10:50:55;;;;;;;;;;;18.30;99.90;;;;;;20949869;28;19924;-73
2023/08/27 11:00:56;;;;;;;;;;;18.40;99.90;;;;;;20976831;28;20383;-73
2023/08/27 11:10:57;;;;;;;;;;;18.50;99.90;;;;;;20990465;28;20314;-73
2023/08/27 11:20:58;;;;;;;;;;;18.50;99.90;;;;;;21001222;28;19927;-73
2023/08/27 11:31:01;;;;;;;;;;;18.10;99.90;;;;;;21003385;28;19952;-72
2023/08/27 11:41:04;;;;;;;;;;;18.00;99.90;;;;;;20972620;28;19974;-74
2023/08/27 11:51:05;;;;;;;;;;;18.10;99.90;;;;;;20979676;28;20294;-73
2023/08/27 12:01:06;;;;;;;;;;;18.30;99.90;;;;;;20990086;28;19916;-74
2023/08/27 12:11:07;;;;;;;;;;;18.00;99.90;;;;;;20977660;28;20344;-74
2023/08/27 12:21:07;;;;;;;;;;;17.90;99.90;;;;;;20988514;28;19917;-73
2023/08/27 12:31:08;;;;;;;;;;;17.90;99.90;;;;;;20984159;28;19916;-73
2023/08/27 12:41:09;;;;;;;;;;;18.10;99.90;;;;;;20993423;28;19917;-73
2023/08/27 12:51:09;;;;;;;;;;;18.40;99.90;;;;;;21028013;28;20282;-73
2023/08/27 13:01:11;;;;;;;;;;;18.20;99.90;;;;;;20995366;28;19917;-73
2023/08/27 13:11:12;;;;;;;;;;;18.00;99.90;;;;;;20995480;28;19962;-73
2023/08/27 13:21:13;;;;;;;;;;;18.00;99.90;;;;;;20994743;28;19916;-73
2023/08/27 13:31:13;;;;;;;;;;;17.90;99.90;;;;;;20985530;28;19913;-74
2023/08/27 13:41:14;;;;;;;;;;;18.00;99.90;;;;;;20974457;28;20042;-75
2023/08/27 13:51:17;;;;;;;;;;;18.10;99.90;;;;;;20992332;28;20224;-74
2023/08/27 14:01:17;;;;;;;;;;;17.90;99.90;;;;;;20992463;28;19963;-75
2023/08/27 14:11:18;;;;;;;;;;;17.70;99.90;;;;;;20991329;28;19913;-74
2023/08/27 14:21:18;;;;;;;;;;;17.60;99.90;;;;;;20990960;28;19924;-74
2023/08/27 14:31:19;;;;;;;;;;;17.80;99.90;;;;;;20990936;28;19912;-74
2023/08/27 14:41:20;;;;;;;;;;;17.80;99.90;;;;;;20978130;28;20056;-74
2023/08/27 14:51:20;;;;;;;;;;;17.90;99.90;;;;;;21013840;28;19919;-75
2023/08/27 15:01:21;;;;;;;;;;;17.80;99.90;;;;;;20998651;28;19931;-74
2023/08/27 15:11:22;;;;;;;;;;;17.70;99.90;;;;;;21005206;28;20371;-74
2023/08/27 15:21:23;;;;;;;;;;;17.80;99.90;;;;;;21042868;28;19948;-75
2023/08/27 15:31:24;;;;;;;;;;;17.90;99.90;;;;;;20962251;28;19916;-75
2023/08/27 15:41:25;;;;;;;;;;;18.00;99.90;;;;;;21018075;28;19916;-76
2023/08/27 15:51:26;;;;;;;;;;;17.60;99.90;;;;;;21014400;28;20290;-74
2023/08/27 16:01:26;;;;;;;;;;;17.30;99.90;;;;;;20993268;28;19921;-74
2023/08/27 16:11:27;;;;;;;;;;;17.20;99.90;;;;;;20999941;28;19948;-74
2023/08/27 16:21:28;;;;;;;;;;;17.20;99.90;;;;;;20995997;28;19916;-75
2023/08/27 16:31:29;;;;;;;;;;;17.40;99.90;;;;;;21004924;28;19936;-74
2023/08/27 16:41:29;;;;;;;;;;;17.00;99.90;;;;;;20994326;28;19917;-74
2023/08/27 16:51:30;;;;;;;;;;;17.00;99.90;;;;;;20993243;28;19912;-73
2023/08/27 17:01:31;;;;;;;;;;;16.70;99.90;;;;;;20993938;28;19962;-74
2023/08/27 17:11:31;;;;;;;;;;;16.30;99.90;;;;;;20994124;28;19944;-73
2023/08/27 17:21:32;;;;;;;;;;;15.90;99.90;;;;;;20993311;28;19920;-74
2023/08/27 17:31:33;;;;;;;;;;;15.90;99.90;;;;;;20992780;28;19950;-74
2023/08/27 17:41:46;;;;;;;;;;;15.90;99.90;;;;;;20978401;28;20001;-74
2023/08/27 17:51:46;;;;;;;;;;;15.80;99.90;;;;;;20991006;28;19939;-74
2023/08/27 18:01:47;;;;;;;;;;;15.70;99.90;;;;;;20972740;28;20338;-74
2023/08/27 18:11:48;;;;;;;;;;;15.90;99.90;;;;;;20989618;28;19958;-73
2023/08/27 18:21:48;;;;;;;;;;;15.80;99.90;;;;;;20989942;28;20306;-73
2023/08/27 18:31:49;;;;;;;;;;;15.90;99.90;;;;;;20996477;28;20268;-75
2023/08/27 18:41:50;;;;;;;;;;;15.80;99.90;;;;;;20995102;28;20369;-74
2023/08/27 18:51:51;;;;;;;;;;;15.90;99.90;;;;;;20990447;28;19916;-74
2023/08/27 19:01:52;;;;;;;;;;;15.90;99.90;;;;;;20989276;28;21243;-74
2023/08/27 19:11:52;;;;;;;;;;;15.90;99.90;;;;;;20987046;28;20001;-74
2023/08/27 19:21:53;;;;;;;;;;;15.90;99.90;;;;;;20988254;28;19989;-74
2023/08/27 19:31:53;;;;;;;;;;;15.60;99.90;;;;;;20993104;28;19912;-75
2023/08/27 19:41:54;;;;;;;;;;;15.70;99.90;;;;;;21002167;28;19923;-74
2023/08/27 19:51:55;;;;;;;;;;;15.70;99.90;;;;;;21002678;28;19940;-75
2023/08/27 20:01:55;;;;;;;;;;;15.70;99.90;;;;;;21001599;28;19923;-74
2023/08/27 20:11:56;;;;;;;;;;;15.70;99.90;;;;;;21001084;28;19920;-75
2023/08/27 20:21:57;;;;;;;;;;;15.80;99.90;;;;;;21000920;28;20394;-74
2023/08/27 20:31:57;;;;;;;;;;;15.70;99.90;;;;;;21002522;28;20324;-74
2023/08/27 20:41:58;;;;;;;;;;;15.60;99.90;;;;;;20998112;28;19947;-74
2023/08/27 20:51:59;;;;;;;;;;;15.50;99.90;;;;;;20998027;28;19920;-75
2023/08/27 21:02:00;;;;;;;;;;;15.50;99.90;;;;;;20986961;28;19923;-74
2023/08/27 21:12:00;;;;;;;;;;;15.40;99.90;;;;;;20992172;28;19913;-74
2023/08/27 21:22:01;;;;;;;;;;;15.30;99.90;;;;;;20998066;28;20379;-74
2023/08/27 21:32:02;;;;;;;;;;;15.30;99.90;;;;;;20995308;28;20279;-75
2023/08/27 21:42:02;;;;;;;;;;;15.30;99.90;;;;;;20976169;28;19927;-74
2023/08/27 21:52:03;;;;;;;;;;;15.10;99.90;;;;;;20992883;28;20386;-74
2023/08/27 22:02:04;;;;;;;;;;;15.10;99.90;;;;;;20975014;28;20355;-75
2023/08/27 22:12:04;;;;;;;;;;;15.20;99.90;;;;;;20993531;28;19944;-75
2023/08/27 22:22:05;;;;;;;;;;;15.30;99.90;;;;;;20995283;28;20283;-75
2023/08/27 22:32:06;;;;;;;;;;;15.20;99.90;;;;;;20991624;28;19913;-74
2023/08/27 22:42:06;;;;;;;;;;;15.10;99.90;;;;;;20983928;28;19920;-75
2023/08/27 22:52:07;;;;;;;;;;;15.30;99.90;;;;;;20974468;28;19912;-75
2023/08/27 23:02:08;;;;;;;;;;;15.10;99.90;;;;;;20976717;28;19966;-75
2023/08/27 23:12:08;;;;;;;;;;;15.20;99.90;;;;;;20967039;28;19957;-75
2023/08/27 23:22:09;;;;;;;;;;;15.00;99.90;;;;;;21004519;28;19978;-75
2023/08/27 23:32:10;;;;;;;;;;;14.90;99.90;;;;;;21002584;28;20337;-75
2023/08/27 23:42:11;;;;;;;;;;;14.80;99.90;;;;;;20978833;28;19952;-75
2023/08/27 23:52:11;;;;;;;;;;;14.70;99.90;;;;;;20997713;28;19913;-75
